sensor_id;sensor_type;location;lat;lon;timestamp;P1;durP1;ratioP1;P2;durP2;ratioP2
35646;SDS011;28680;45.642;13.756;2024-01-06T00:02:19;9.80;;;2.75;;
35646;SDS011;28680;45.642;13.756;2024-01-06T00:04:45;9.05;;;2.50;;
35646;SDS011;28680;45.642;13.756;2024-01-06T00:07:11;11.60;;;2.55;;
35646;SDS011;28680;45.642;13.756;2024-01-06T00:09:38;10.00;;;2.55;;
35646;SDS011;28680;45.642;13.756;2024-01-06T00:12:04;8.50;;;2.10;;
35646;SDS011;28680;45.642;13.756;2024-01-06T00:14:30;11.30;;;2.70;;
35646;SDS011;28680;45.642;13.756;2024-01-06T00:16:56;10.48;;;2.38;;
35646;SDS011;28680;45.642;13.756;2024-01-06T00:19:22;10.77;;;2.58;;
35646;SDS011;28680;45.642;13.756;2024-01-06T00:21:51;10.48;;;2.88;;
35646;SDS011;28680;45.642;13.756;2024-01-06T00:24:17;10.43;;;2.80;;
35646;SDS011;28680;45.642;13.756;2024-01-06T00:26:42;11.90;;;2.80;;
35646;SDS011;28680;45.642;13.756;2024-01-06T00:29:08;9.23;;;2.50;;
35646;SDS011;28680;45.642;13.756;2024-01-06T00:31:34;11.52;;;3.03;;
35646;SDS011;28680;45.642;13.756;2024-01-06T00:34:00;10.85;;;3.08;;
35646;SDS011;28680;45.642;13.756;2024-01-06T00:36:26;17.10;;;3.08;;
35646;SDS011;28680;45.642;13.756;2024-01-06T00:38:51;11.32;;;3.10;;
35646;SDS011;28680;45.642;13.756;2024-01-06T00:41:17;16.48;;;3.63;;
35646;SDS011;28680;45.642;13.756;2024-01-06T00:43:43;14.95;;;3.45;;
35646;SDS011;28680;45.642;13.756;2024-01-06T00:46:09;9.90;;;3.20;;
35646;SDS011;28680;45.642;13.756;2024-01-06T00:48:34;12.48;;;3.35;;
35646;SDS011;28680;45.642;13.756;2024-01-06T00:51:00;15.00;;;3.08;;
35646;SDS011;28680;45.642;13.756;2024-01-06T00:53:26;13.30;;;3.03;;
35646;SDS011;28680;45.642;13.756;2024-01-06T00:55:52;13.73;;;3.40;;
35646;SDS011;28680;45.642;13.756;2024-01-06T00:58:18;16.15;;;3.75;;
35646;SDS011;28680;45.642;13.756;2024-01-06T01:00:44;14.40;;;3.38;;
35646;SDS011;28680;45.642;13.756;2024-01-06T01:03:11;12.38;;;3.30;;
35646;SDS011;28680;45.642;13.756;2024-01-06T01:05:37;16.77;;;3.50;;
35646;SDS011;28680;45.642;13.756;2024-01-06T01:08:03;10.40;;;3.00;;
35646;SDS011;28680;45.642;13.756;2024-01-06T01:10:29;14.55;;;3.35;;
35646;SDS011;28680;45.642;13.756;2024-01-06T01:12:54;18.73;;;3.30;;
35646;SDS011;28680;45.642;13.756;2024-01-06T01:15:20;16.00;;;3.88;;
35646;SDS011;28680;45.642;13.756;2024-01-06T01:17:46;13.00;;;2.88;;
35646;SDS011;28680;45.642;13.756;2024-01-06T01:20:12;17.42;;;3.65;;
35646;SDS011;28680;45.642;13.756;2024-01-06T01:22:37;15.45;;;3.08;;
35646;SDS011;28680;45.642;13.756;2024-01-06T01:25:03;12.60;;;3.33;;
35646;SDS011;28680;45.642;13.756;2024-01-06T01:27:35;13.82;;;3.30;;
35646;SDS011;28680;45.642;13.756;2024-01-06T01:30:01;17.95;;;4.03;;
35646;SDS011;28680;45.642;13.756;2024-01-06T01:32:27;13.77;;;3.67;;
35646;SDS011;28680;45.642;13.756;2024-01-06T01:34:53;15.60;;;3.03;;
35646;SDS011;28680;45.642;13.756;2024-01-06T01:37:20;16.80;;;3.03;;
35646;SDS011;28680;45.642;13.756;2024-01-06T01:39:45;12.32;;;3.40;;
35646;SDS011;28680;45.642;13.756;2024-01-06T01:42:12;10.70;;;3.30;;
35646;SDS011;28680;45.642;13.756;2024-01-06T01:44:38;15.45;;;3.05;;
35646;SDS011;28680;45.642;13.756;2024-01-06T01:47:04;14.30;;;3.15;;
35646;SDS011;28680;45.642;13.756;2024-01-06T01:49:30;15.23;;;3.10;;
35646;SDS011;28680;45.642;13.756;2024-01-06T01:51:57;8.00;;;2.78;;
35646;SDS011;28680;45.642;13.756;2024-01-06T01:54:24;19.55;;;3.67;;
35646;SDS011;28680;45.642;13.756;2024-01-06T01:56:50;17.58;;;3.83;;
35646;SDS011;28680;45.642;13.756;2024-01-06T01:59:17;16.15;;;3.90;;
35646;SDS011;28680;45.642;13.756;2024-01-06T02:01:44;12.95;;;3.58;;
35646;SDS011;28680;45.642;13.756;2024-01-06T02:04:11;13.15;;;3.60;;
35646;SDS011;28680;45.642;13.756;2024-01-06T02:06:38;12.13;;;3.67;;
35646;SDS011;28680;45.642;13.756;2024-01-06T02:09:03;16.90;;;3.25;;
35646;SDS011;28680;45.642;13.756;2024-01-06T02:11:30;9.52;;;2.70;;
35646;SDS011;28680;45.642;13.756;2024-01-06T02:13:56;16.52;;;3.53;;
35646;SDS011;28680;45.642;13.756;2024-01-06T02:16:22;14.38;;;3.45;;
35646;SDS011;28680;45.642;13.756;2024-01-06T02:18:48;18.05;;;3.35;;
35646;SDS011;28680;45.642;13.756;2024-01-06T02:21:14;14.65;;;3.83;;
35646;SDS011;28680;45.642;13.756;2024-01-06T02:23:41;11.73;;;2.88;;
35646;SDS011;28680;45.642;13.756;2024-01-06T02:26:06;15.25;;;3.47;;
35646;SDS011;28680;45.642;13.756;2024-01-06T02:28:32;15.02;;;3.15;;
35646;SDS011;28680;45.642;13.756;2024-01-06T02:30:58;11.55;;;3.17;;
35646;SDS011;28680;45.642;13.756;2024-01-06T02:33:24;10.40;;;2.83;;
35646;SDS011;28680;45.642;13.756;2024-01-06T02:35:50;12.25;;;2.65;;
35646;SDS011;28680;45.642;13.756;2024-01-06T02:38:16;12.70;;;3.20;;
35646;SDS011;28680;45.642;13.756;2024-01-06T02:40:41;11.25;;;2.65;;
35646;SDS011;28680;45.642;13.756;2024-01-06T02:43:08;13.38;;;3.03;;
35646;SDS011;28680;45.642;13.756;2024-01-06T02:45:35;12.00;;;2.38;;
35646;SDS011;28680;45.642;13.756;2024-01-06T02:48:00;13.40;;;2.70;;
35646;SDS011;28680;45.642;13.756;2024-01-06T02:50:26;10.85;;;2.70;;
35646;SDS011;28680;45.642;13.756;2024-01-06T02:52:52;9.98;;;3.30;;
35646;SDS011;28680;45.642;13.756;2024-01-06T02:55:18;7.68;;;2.25;;
35646;SDS011;28680;45.642;13.756;2024-01-06T02:57:45;11.65;;;2.63;;
35646;SDS011;28680;45.642;13.756;2024-01-06T03:00:11;8.55;;;2.75;;
35646;SDS011;28680;45.642;13.756;2024-01-06T03:02:38;6.25;;;2.05;;
35646;SDS011;28680;45.642;13.756;2024-01-06T03:05:07;7.78;;;2.25;;
35646;SDS011;28680;45.642;13.756;2024-01-06T03:07:34;7.22;;;2.22;;
35646;SDS011;28680;45.642;13.756;2024-01-06T03:09:59;10.43;;;2.28;;
35646;SDS011;28680;45.642;13.756;2024-01-06T03:12:25;8.57;;;2.33;;
35646;SDS011;28680;45.642;13.756;2024-01-06T03:14:51;8.15;;;2.50;;
35646;SDS011;28680;45.642;13.756;2024-01-06T03:17:18;9.98;;;2.40;;
35646;SDS011;28680;45.642;13.756;2024-01-06T03:19:44;9.43;;;2.47;;
35646;SDS011;28680;45.642;13.756;2024-01-06T03:22:10;7.43;;;2.60;;
35646;SDS011;28680;45.642;13.756;2024-01-06T03:24:36;8.65;;;2.25;;
35646;SDS011;28680;45.642;13.756;2024-01-06T03:27:02;8.38;;;2.50;;
35646;SDS011;28680;45.642;13.756;2024-01-06T03:29:28;12.38;;;3.00;;
35646;SDS011;28680;45.642;13.756;2024-01-06T03:31:53;13.70;;;3.17;;
35646;SDS011;28680;45.642;13.756;2024-01-06T03:34:19;8.15;;;2.55;;
35646;SDS011;28680;45.642;13.756;2024-01-06T03:36:45;14.20;;;3.00;;
35646;SDS011;28680;45.642;13.756;2024-01-06T03:39:11;11.82;;;3.63;;
35646;SDS011;28680;45.642;13.756;2024-01-06T03:41:38;11.52;;;3.08;;
35646;SDS011;28680;45.642;13.756;2024-01-06T03:44:04;9.98;;;2.88;;
35646;SDS011;28680;45.642;13.756;2024-01-06T03:46:30;9.82;;;2.70;;
35646;SDS011;28680;45.642;13.756;2024-01-06T03:48:55;9.30;;;2.53;;
35646;SDS011;28680;45.642;13.756;2024-01-06T03:51:21;8.55;;;3.28;;
35646;SDS011;28680;45.642;13.756;2024-01-06T03:53:47;9.18;;;3.13;;
35646;SDS011;28680;45.642;13.756;2024-01-06T03:56:13;9.00;;;2.30;;
35646;SDS011;28680;45.642;13.756;2024-01-06T03:58:40;7.82;;;2.25;;
35646;SDS011;28680;45.642;13.756;2024-01-06T04:01:05;7.65;;;2.50;;
35646;SDS011;28680;45.642;13.756;2024-01-06T04:03:31;9.85;;;2.80;;
35646;SDS011;28680;45.642;13.756;2024-01-06T04:05:57;6.07;;;2.17;;
35646;SDS011;28680;45.642;13.756;2024-01-06T04:08:23;7.53;;;2.30;;
35646;SDS011;28680;45.642;13.756;2024-01-06T04:10:49;8.10;;;2.35;;
35646;SDS011;28680;45.642;13.756;2024-01-06T04:13:15;7.38;;;1.98;;
35646;SDS011;28680;45.642;13.756;2024-01-06T04:15:41;5.80;;;2.20;;
35646;SDS011;28680;45.642;13.756;2024-01-06T04:18:07;6.30;;;2.55;;
35646;SDS011;28680;45.642;13.756;2024-01-06T04:20:34;9.32;;;2.42;;
35646;SDS011;28680;45.642;13.756;2024-01-06T04:22:59;8.63;;;2.47;;
35646;SDS011;28680;45.642;13.756;2024-01-06T04:25:25;9.23;;;2.58;;
35646;SDS011;28680;45.642;13.756;2024-01-06T04:27:51;9.75;;;2.65;;
35646;SDS011;28680;45.642;13.756;2024-01-06T04:30:17;7.47;;;2.50;;
35646;SDS011;28680;45.642;13.756;2024-01-06T04:32:43;10.55;;;2.88;;
35646;SDS011;28680;45.642;13.756;2024-01-06T04:35:09;10.43;;;2.75;;
35646;SDS011;28680;45.642;13.756;2024-01-06T04:37:35;12.27;;;3.05;;
35646;SDS011;28680;45.642;13.756;2024-01-06T04:40:01;8.88;;;2.92;;
35646;SDS011;28680;45.642;13.756;2024-01-06T04:42:29;7.47;;;2.92;;
35646;SDS011;28680;45.642;13.756;2024-01-06T04:44:55;13.63;;;2.60;;
35646;SDS011;28680;45.642;13.756;2024-01-06T04:47:21;6.65;;;2.67;;
35646;SDS011;28680;45.642;13.756;2024-01-06T04:49:46;10.77;;;2.35;;
35646;SDS011;28680;45.642;13.756;2024-01-06T04:52:12;6.18;;;1.83;;
35646;SDS011;28680;45.642;13.756;2024-01-06T04:54:38;7.75;;;2.35;;
35646;SDS011;28680;45.642;13.756;2024-01-06T04:57:04;5.40;;;2.28;;
35646;SDS011;28680;45.642;13.756;2024-01-06T04:59:30;5.03;;;2.17;;
35646;SDS011;28680;45.642;13.756;2024-01-06T05:01:56;5.47;;;2.35;;
35646;SDS011;28680;45.642;13.756;2024-01-06T05:04:23;8.82;;;2.20;;
35646;SDS011;28680;45.642;13.756;2024-01-06T05:06:49;6.90;;;2.10;;
35646;SDS011;28680;45.642;13.756;2024-01-06T05:09:18;6.82;;;1.90;;
35646;SDS011;28680;45.642;13.756;2024-01-06T05:11:44;5.28;;;2.20;;
35646;SDS011;28680;45.642;13.756;2024-01-06T05:14:10;7.30;;;2.72;;
35646;SDS011;28680;45.642;13.756;2024-01-06T05:16:36;5.85;;;2.00;;
35646;SDS011;28680;45.642;13.756;2024-01-06T05:19:02;5.97;;;1.92;;
35646;SDS011;28680;45.642;13.756;2024-01-06T05:21:29;12.27;;;2.63;;
35646;SDS011;28680;45.642;13.756;2024-01-06T05:23:55;7.30;;;2.08;;
35646;SDS011;28680;45.642;13.756;2024-01-06T05:26:21;7.50;;;2.10;;
35646;SDS011;28680;45.642;13.756;2024-01-06T05:28:47;7.30;;;2.55;;
35646;SDS011;28680;45.642;13.756;2024-01-06T05:31:13;5.93;;;1.63;;
35646;SDS011;28680;45.642;13.756;2024-01-06T05:33:39;5.97;;;1.67;;
35646;SDS011;28680;45.642;13.756;2024-01-06T05:36:04;3.55;;;1.52;;
35646;SDS011;28680;45.642;13.756;2024-01-06T05:38:30;6.35;;;1.90;;
35646;SDS011;28680;45.642;13.756;2024-01-06T05:40:56;5.82;;;2.47;;
35646;SDS011;28680;45.642;13.756;2024-01-06T05:43:22;6.72;;;1.90;;
35646;SDS011;28680;45.642;13.756;2024-01-06T05:45:47;6.47;;;2.05;;
35646;SDS011;28680;45.642;13.756;2024-01-06T05:48:13;5.68;;;2.13;;
35646;SDS011;28680;45.642;13.756;2024-01-06T05:50:39;8.38;;;2.38;;
35646;SDS011;28680;45.642;13.756;2024-01-06T05:53:06;8.93;;;2.25;;
35646;SDS011;28680;45.642;13.756;2024-01-06T05:55:32;8.75;;;3.00;;
35646;SDS011;28680;45.642;13.756;2024-01-06T05:57:58;6.65;;;2.13;;
35646;SDS011;28680;45.642;13.756;2024-01-06T06:00:24;7.93;;;2.63;;
35646;SDS011;28680;45.642;13.756;2024-01-06T06:02:50;10.95;;;2.42;;
35646;SDS011;28680;45.642;13.756;2024-01-06T06:05:15;9.32;;;2.60;;
35646;SDS011;28680;45.642;13.756;2024-01-06T06:07:42;8.00;;;3.13;;
35646;SDS011;28680;45.642;13.756;2024-01-06T06:10:09;7.40;;;2.40;;
35646;SDS011;28680;45.642;13.756;2024-01-06T06:12:36;10.95;;;2.97;;
35646;SDS011;28680;45.642;13.756;2024-01-06T06:15:03;10.32;;;3.63;;
35646;SDS011;28680;45.642;13.756;2024-01-06T06:17:32;14.95;;;3.20;;
35646;SDS011;28680;45.642;13.756;2024-01-06T06:19:59;9.02;;;2.70;;
35646;SDS011;28680;45.642;13.756;2024-01-06T06:22:25;7.40;;;2.80;;
35646;SDS011;28680;45.642;13.756;2024-01-06T06:24:55;12.52;;;3.20;;
35646;SDS011;28680;45.642;13.756;2024-01-06T06:27:22;10.98;;;3.40;;
35646;SDS011;28680;45.642;13.756;2024-01-06T06:29:48;10.93;;;3.22;;
35646;SDS011;28680;45.642;13.756;2024-01-06T06:32:14;11.20;;;2.97;;
35646;SDS011;28680;45.642;13.756;2024-01-06T06:34:40;9.50;;;2.65;;
35646;SDS011;28680;45.642;13.756;2024-01-06T06:37:06;6.38;;;2.28;;
35646;SDS011;28680;45.642;13.756;2024-01-06T06:39:32;6.93;;;2.40;;
35646;SDS011;28680;45.642;13.756;2024-01-06T06:41:59;9.63;;;2.47;;
35646;SDS011;28680;45.642;13.756;2024-01-06T06:44:25;11.27;;;2.80;;
35646;SDS011;28680;45.642;13.756;2024-01-06T06:46:51;8.60;;;2.40;;
35646;SDS011;28680;45.642;13.756;2024-01-06T06:49:16;9.20;;;2.83;;
35646;SDS011;28680;45.642;13.756;2024-01-06T06:51:42;10.57;;;2.58;;
35646;SDS011;28680;45.642;13.756;2024-01-06T06:54:12;13.63;;;2.80;;
35646;SDS011;28680;45.642;13.756;2024-01-06T06:56:39;7.68;;;2.33;;
35646;SDS011;28680;45.642;13.756;2024-01-06T06:59:05;6.05;;;2.40;;
35646;SDS011;28680;45.642;13.756;2024-01-06T07:01:31;8.05;;;2.83;;
35646;SDS011;28680;45.642;13.756;2024-01-06T07:03:57;9.40;;;2.75;;
35646;SDS011;28680;45.642;13.756;2024-01-06T07:06:23;10.75;;;3.38;;
35646;SDS011;28680;45.642;13.756;2024-01-06T07:08:49;8.73;;;2.70;;
35646;SDS011;28680;45.642;13.756;2024-01-06T07:11:15;8.40;;;2.83;;
35646;SDS011;28680;45.642;13.756;2024-01-06T07:13:43;8.20;;;2.78;;
35646;SDS011;28680;45.642;13.756;2024-01-06T07:16:09;12.73;;;3.35;;
35646;SDS011;28680;45.642;13.756;2024-01-06T07:18:37;9.90;;;3.17;;
35646;SDS011;28680;45.642;13.756;2024-01-06T07:21:06;11.65;;;3.22;;
35646;SDS011;28680;45.642;13.756;2024-01-06T07:23:32;12.65;;;3.20;;
35646;SDS011;28680;45.642;13.756;2024-01-06T07:25:58;11.27;;;4.05;;
35646;SDS011;28680;45.642;13.756;2024-01-06T07:28:24;10.52;;;3.40;;
35646;SDS011;28680;45.642;13.756;2024-01-06T07:30:51;12.88;;;4.43;;
35646;SDS011;28680;45.642;13.756;2024-01-06T07:33:17;8.23;;;3.28;;
35646;SDS011;28680;45.642;13.756;2024-01-06T07:35:43;8.73;;;3.15;;
35646;SDS011;28680;45.642;13.756;2024-01-06T07:38:10;9.13;;;3.38;;
35646;SDS011;28680;45.642;13.756;2024-01-06T07:40:36;8.32;;;3.05;;
35646;SDS011;28680;45.642;13.756;2024-01-06T07:43:03;9.68;;;3.50;;
35646;SDS011;28680;45.642;13.756;2024-01-06T07:45:29;10.68;;;3.70;;
35646;SDS011;28680;45.642;13.756;2024-01-06T07:47:57;9.15;;;3.85;;
35646;SDS011;28680;45.642;13.756;2024-01-06T07:50:23;13.85;;;4.50;;
35646;SDS011;28680;45.642;13.756;2024-01-06T07:52:49;13.02;;;3.97;;
35646;SDS011;28680;45.642;13.756;2024-01-06T07:55:15;12.88;;;5.13;;
35646;SDS011;28680;45.642;13.756;2024-01-06T07:57:41;11.48;;;4.10;;
35646;SDS011;28680;45.642;13.756;2024-01-06T08:00:07;7.38;;;3.50;;
35646;SDS011;28680;45.642;13.756;2024-01-06T08:02:40;14.93;;;5.15;;
35646;SDS011;28680;45.642;13.756;2024-01-06T08:05:06;10.45;;;4.00;;
35646;SDS011;28680;45.642;13.756;2024-01-06T08:07:32;13.15;;;4.47;;
35646;SDS011;28680;45.642;13.756;2024-01-06T08:09:58;14.40;;;4.20;;
35646;SDS011;28680;45.642;13.756;2024-01-06T08:12:24;13.88;;;4.57;;
35646;SDS011;28680;45.642;13.756;2024-01-06T08:14:50;17.02;;;4.93;;
35646;SDS011;28680;45.642;13.756;2024-01-06T08:17:16;10.82;;;3.83;;
35646;SDS011;28680;45.642;13.756;2024-01-06T08:19:42;9.85;;;3.20;;
35646;SDS011;28680;45.642;13.756;2024-01-06T08:22:07;7.95;;;3.25;;
35646;SDS011;28680;45.642;13.756;2024-01-06T08:24:33;8.95;;;2.88;;
35646;SDS011;28680;45.642;13.756;2024-01-06T08:26:59;5.85;;;2.95;;
35646;SDS011;28680;45.642;13.756;2024-01-06T08:29:31;9.40;;;3.90;;
35646;SDS011;28680;45.642;13.756;2024-01-06T08:32:50;9.05;;;2.83;;
35646;SDS011;28680;45.642;13.756;2024-01-06T08:35:17;7.43;;;2.85;;
35646;SDS011;28680;45.642;13.756;2024-01-06T08:37:42;9.40;;;3.72;;
35646;SDS011;28680;45.642;13.756;2024-01-06T08:40:09;6.43;;;2.85;;
35646;SDS011;28680;45.642;13.756;2024-01-06T08:42:35;8.00;;;3.30;;
35646;SDS011;28680;45.642;13.756;2024-01-06T08:45:01;8.88;;;3.53;;
35646;SDS011;28680;45.642;13.756;2024-01-06T08:47:27;13.02;;;4.05;;
35646;SDS011;28680;45.642;13.756;2024-01-06T08:49:53;5.60;;;2.95;;
35646;SDS011;28680;45.642;13.756;2024-01-06T08:52:19;8.05;;;3.58;;
35646;SDS011;28680;45.642;13.756;2024-01-06T08:54:45;10.18;;;3.92;;
35646;SDS011;28680;45.642;13.756;2024-01-06T08:57:11;10.63;;;4.38;;
35646;SDS011;28680;45.642;13.756;2024-01-06T08:59:36;10.82;;;4.30;;
35646;SDS011;28680;45.642;13.756;2024-01-06T09:02:03;13.02;;;4.50;;
35646;SDS011;28680;45.642;13.756;2024-01-06T09:04:29;9.32;;;3.40;;
35646;SDS011;28680;45.642;13.756;2024-01-06T09:06:54;7.35;;;3.42;;
35646;SDS011;28680;45.642;13.756;2024-01-06T09:09:20;14.23;;;4.80;;
35646;SDS011;28680;45.642;13.756;2024-01-06T09:11:46;7.80;;;3.75;;
35646;SDS011;28680;45.642;13.756;2024-01-06T09:14:12;13.10;;;3.58;;
35646;SDS011;28680;45.642;13.756;2024-01-06T09:16:37;10.15;;;4.65;;
35646;SDS011;28680;45.642;13.756;2024-01-06T09:19:03;12.38;;;4.55;;
35646;SDS011;28680;45.642;13.756;2024-01-06T09:21:29;11.65;;;4.18;;
35646;SDS011;28680;45.642;13.756;2024-01-06T09:23:55;6.20;;;3.65;;
35646;SDS011;28680;45.642;13.756;2024-01-06T09:26:21;9.05;;;3.88;;
35646;SDS011;28680;45.642;13.756;2024-01-06T09:28:47;8.15;;;2.90;;
35646;SDS011;28680;45.642;13.756;2024-01-06T09:31:13;10.75;;;3.55;;
35646;SDS011;28680;45.642;13.756;2024-01-06T09:33:39;7.95;;;3.20;;
35646;SDS011;28680;45.642;13.756;2024-01-06T09:36:04;8.90;;;3.20;;
35646;SDS011;28680;45.642;13.756;2024-01-06T09:38:30;6.90;;;3.00;;
35646;SDS011;28680;45.642;13.756;2024-01-06T09:40:56;8.57;;;3.75;;
35646;SDS011;28680;45.642;13.756;2024-01-06T09:43:23;9.43;;;3.15;;
35646;SDS011;28680;45.642;13.756;2024-01-06T09:46:32;6.90;;;3.70;;
35646;SDS011;28680;45.642;13.756;2024-01-06T09:48:51;8.35;;;3.78;;
35646;SDS011;28680;45.642;13.756;2024-01-06T09:51:18;10.38;;;4.28;;
35646;SDS011;28680;45.642;13.756;2024-01-06T09:54:03;14.98;;;4.20;;
35646;SDS011;28680;45.642;13.756;2024-01-06T09:56:33;8.60;;;3.95;;
35646;SDS011;28680;45.642;13.756;2024-01-06T09:58:59;9.20;;;3.90;;
35646;SDS011;28680;45.642;13.756;2024-01-06T10:01:25;9.65;;;3.88;;
35646;SDS011;28680;45.642;13.756;2024-01-06T10:03:51;10.48;;;3.72;;
35646;SDS011;28680;45.642;13.756;2024-01-06T10:06:17;9.35;;;3.90;;
35646;SDS011;28680;45.642;13.756;2024-01-06T10:08:43;11.43;;;4.15;;
35646;SDS011;28680;45.642;13.756;2024-01-06T10:11:13;17.27;;;5.43;;
35646;SDS011;28680;45.642;13.756;2024-01-06T10:13:39;9.98;;;3.85;;
35646;SDS011;28680;45.642;13.756;2024-01-06T10:16:08;11.68;;;4.50;;
35646;SDS011;28680;45.642;13.756;2024-01-06T10:18:34;11.32;;;4.50;;
35646;SDS011;28680;45.642;13.756;2024-01-06T10:21:04;10.65;;;4.18;;
35646;SDS011;28680;45.642;13.756;2024-01-06T10:23:31;15.35;;;6.45;;
35646;SDS011;28680;45.642;13.756;2024-01-06T10:25:57;14.88;;;5.47;;
35646;SDS011;28680;45.642;13.756;2024-01-06T10:28:24;14.45;;;5.95;;
35646;SDS011;28680;45.642;13.756;2024-01-06T10:30:53;10.73;;;6.32;;
35646;SDS011;28680;45.642;13.756;2024-01-06T10:33:20;17.88;;;6.78;;
35646;SDS011;28680;45.642;13.756;2024-01-06T10:35:48;17.73;;;5.90;;
35646;SDS011;28680;45.642;13.756;2024-01-06T10:38:14;15.32;;;5.07;;
35646;SDS011;28680;45.642;13.756;2024-01-06T10:41:00;13.00;;;5.43;;
35646;SDS011;28680;45.642;13.756;2024-01-06T10:43:34;14.85;;;5.20;;
35646;SDS011;28680;45.642;13.756;2024-01-06T10:46:03;11.65;;;4.85;;
35646;SDS011;28680;45.642;13.756;2024-01-06T10:48:32;12.18;;;5.30;;
35646;SDS011;28680;45.642;13.756;2024-01-06T10:51:00;11.50;;;4.97;;
35646;SDS011;28680;45.642;13.756;2024-01-06T10:53:32;17.20;;;5.65;;
35646;SDS011;28680;45.642;13.756;2024-01-06T10:56:02;17.45;;;5.22;;
35646;SDS011;28680;45.642;13.756;2024-01-06T10:58:29;12.88;;;5.70;;
35646;SDS011;28680;45.642;13.756;2024-01-06T11:00:57;14.15;;;5.07;;
35646;SDS011;28680;45.642;13.756;2024-01-06T11:03:24;18.48;;;5.70;;
35646;SDS011;28680;45.642;13.756;2024-01-06T11:05:50;14.10;;;5.53;;
35646;SDS011;28680;45.642;13.756;2024-01-06T11:08:17;12.80;;;5.25;;
35646;SDS011;28680;45.642;13.756;2024-01-06T11:10:43;15.85;;;6.63;;
35646;SDS011;28680;45.642;13.756;2024-01-06T11:15:49;17.25;;;7.53;;
35646;SDS011;28680;45.642;13.756;2024-01-06T11:21:16;15.43;;;6.30;;
35646;SDS011;28680;45.642;13.756;2024-01-06T11:23:43;15.90;;;6.20;;
35646;SDS011;28680;45.642;13.756;2024-01-06T11:26:09;16.65;;;5.95;;
35646;SDS011;28680;45.642;13.756;2024-01-06T11:28:45;12.00;;;5.80;;
35646;SDS011;28680;45.642;13.756;2024-01-06T11:31:12;12.35;;;6.38;;
35646;SDS011;28680;45.642;13.756;2024-01-06T11:33:44;18.88;;;7.35;;
35646;SDS011;28680;45.642;13.756;2024-01-06T11:38:40;12.77;;;6.65;;
35646;SDS011;28680;45.642;13.756;2024-01-06T11:41:09;15.18;;;7.50;;
35646;SDS011;28680;45.642;13.756;2024-01-06T11:43:55;19.23;;;8.65;;
35646;SDS011;28680;45.642;13.756;2024-01-06T11:46:21;14.02;;;7.95;;
35646;SDS011;28680;45.642;13.756;2024-01-06T11:48:47;18.95;;;8.50;;
35646;SDS011;28680;45.642;13.756;2024-01-06T11:51:17;19.00;;;8.27;;
35646;SDS011;28680;45.642;13.756;2024-01-06T11:53:43;17.73;;;7.20;;
35646;SDS011;28680;45.642;13.756;2024-01-06T11:56:10;10.35;;;4.97;;
35646;SDS011;28680;45.642;13.756;2024-01-06T11:58:39;13.98;;;5.57;;
35646;SDS011;28680;45.642;13.756;2024-01-06T12:01:05;12.82;;;5.18;;
35646;SDS011;28680;45.642;13.756;2024-01-06T12:03:31;11.98;;;5.32;;
35646;SDS011;28680;45.642;13.756;2024-01-06T12:06:01;14.63;;;4.65;;
35646;SDS011;28680;45.642;13.756;2024-01-06T12:08:27;14.73;;;4.40;;
35646;SDS011;28680;45.642;13.756;2024-01-06T12:11:03;14.85;;;5.00;;
35646;SDS011;28680;45.642;13.756;2024-01-06T12:13:30;16.27;;;5.60;;
35646;SDS011;28680;45.642;13.756;2024-01-06T12:15:56;15.80;;;5.53;;
35646;SDS011;28680;45.642;13.756;2024-01-06T12:18:22;11.23;;;4.65;;
35646;SDS011;28680;45.642;13.756;2024-01-06T12:20:50;11.15;;;4.50;;
35646;SDS011;28680;45.642;13.756;2024-01-06T12:23:24;13.25;;;5.00;;
35646;SDS011;28680;45.642;13.756;2024-01-06T12:25:51;12.60;;;4.10;;
35646;SDS011;28680;45.642;13.756;2024-01-06T12:28:17;11.98;;;4.38;;
35646;SDS011;28680;45.642;13.756;2024-01-06T12:30:42;10.73;;;4.10;;
35646;SDS011;28680;45.642;13.756;2024-01-06T12:33:09;11.43;;;4.60;;
35646;SDS011;28680;45.642;13.756;2024-01-06T12:35:36;15.93;;;4.82;;
35646;SDS011;28680;45.642;13.756;2024-01-06T12:38:04;8.60;;;3.83;;
35646;SDS011;28680;45.642;13.756;2024-01-06T12:40:34;10.80;;;3.60;;
35646;SDS011;28680;45.642;13.756;2024-01-06T12:43:02;11.18;;;3.60;;
35646;SDS011;28680;45.642;13.756;2024-01-06T12:45:29;11.93;;;4.00;;
35646;SDS011;28680;45.642;13.756;2024-01-06T12:47:55;9.48;;;3.78;;
35646;SDS011;28680;45.642;13.756;2024-01-06T12:50:20;9.43;;;3.80;;
35646;SDS011;28680;45.642;13.756;2024-01-06T12:52:46;9.10;;;3.17;;
35646;SDS011;28680;45.642;13.756;2024-01-06T12:55:12;11.50;;;3.95;;
35646;SDS011;28680;45.642;13.756;2024-01-06T12:57:38;9.32;;;4.40;;
35646;SDS011;28680;45.642;13.756;2024-01-06T13:00:04;9.90;;;3.75;;
35646;SDS011;28680;45.642;13.756;2024-01-06T13:02:36;9.07;;;3.47;;
35646;SDS011;28680;45.642;13.756;2024-01-06T13:05:02;9.32;;;3.58;;
35646;SDS011;28680;45.642;13.756;2024-01-06T13:07:29;13.20;;;4.55;;
35646;SDS011;28680;45.642;13.756;2024-01-06T13:09:55;10.30;;;4.80;;
35646;SDS011;28680;45.642;13.756;2024-01-06T13:12:21;11.48;;;4.50;;
35646;SDS011;28680;45.642;13.756;2024-01-06T13:14:49;12.15;;;4.78;;
35646;SDS011;28680;45.642;13.756;2024-01-06T13:17:16;13.60;;;7.00;;
35646;SDS011;28680;45.642;13.756;2024-01-06T13:19:42;13.77;;;6.95;;
35646;SDS011;28680;45.642;13.756;2024-01-06T13:22:08;15.45;;;6.35;;
35646;SDS011;28680;45.642;13.756;2024-01-06T13:24:34;14.23;;;8.10;;
35646;SDS011;28680;45.642;13.756;2024-01-06T13:27:00;14.07;;;7.45;;
35646;SDS011;28680;45.642;13.756;2024-01-06T13:29:28;16.65;;;8.48;;
35646;SDS011;28680;45.642;13.756;2024-01-06T13:31:54;14.65;;;7.45;;
35646;SDS011;28680;45.642;13.756;2024-01-06T13:34:20;17.05;;;7.03;;
35646;SDS011;28680;45.642;13.756;2024-01-06T13:36:46;16.15;;;6.68;;
35646;SDS011;28680;45.642;13.756;2024-01-06T13:39:12;15.25;;;7.38;;
35646;SDS011;28680;45.642;13.756;2024-01-06T13:41:45;13.98;;;6.80;;
35646;SDS011;28680;45.642;13.756;2024-01-06T13:44:13;13.88;;;6.63;;
35646;SDS011;28680;45.642;13.756;2024-01-06T13:46:39;15.52;;;7.28;;
35646;SDS011;28680;45.642;13.756;2024-01-06T13:49:12;11.90;;;6.00;;
35646;SDS011;28680;45.642;13.756;2024-01-06T13:51:42;11.25;;;5.90;;
35646;SDS011;28680;45.642;13.756;2024-01-06T13:54:08;12.82;;;5.45;;
35646;SDS011;28680;45.642;13.756;2024-01-06T13:56:35;11.20;;;6.22;;
35646;SDS011;28680;45.642;13.756;2024-01-06T13:59:02;13.43;;;6.28;;
35646;SDS011;28680;45.642;13.756;2024-01-06T14:01:29;12.88;;;6.57;;
35646;SDS011;28680;45.642;13.756;2024-01-06T14:03:55;9.35;;;5.03;;
35646;SDS011;28680;45.642;13.756;2024-01-06T14:06:25;8.50;;;3.60;;
35646;SDS011;28680;45.642;13.756;2024-01-06T14:08:58;8.73;;;4.55;;
35646;SDS011;28680;45.642;13.756;2024-01-06T14:11:25;6.15;;;3.17;;
35646;SDS011;28680;45.642;13.756;2024-01-06T14:13:54;7.22;;;3.20;;
35646;SDS011;28680;45.642;13.756;2024-01-06T14:16:21;6.20;;;3.88;;
35646;SDS011;28680;45.642;13.756;2024-01-06T14:18:47;7.25;;;3.10;;
35646;SDS011;28680;45.642;13.756;2024-01-06T14:21:13;8.43;;;3.38;;
35646;SDS011;28680;45.642;13.756;2024-01-06T14:23:47;11.35;;;3.80;;
35646;SDS011;28680;45.642;13.756;2024-01-06T14:26:15;6.53;;;3.10;;
35646;SDS011;28680;45.642;13.756;2024-01-06T14:28:42;7.53;;;2.67;;
35646;SDS011;28680;45.642;13.756;2024-01-06T14:31:14;5.07;;;2.40;;
35646;SDS011;28680;45.642;13.756;2024-01-06T14:33:40;7.60;;;2.83;;